Portada
METAR-TAF:

METAR-TAF

Aeroports :

Paris, Tennessee, Estats Units d'Amèrica

latitud: 36-20-18N, longitud: 088-22-58W, altitud: 177 m

Observació

L'informe es va fer fa 26 minuts, a les 20:35 UTC
Vent 12 kt del Nord-Est
Temperatura 7°C
Humitat 87%
Pressió 1017 hPa
Visibilitat: 16.1 km
Cel cobert a una alçada de 1000 ft

METAR: KPHT 222035Z AUTO 04012KT 10SM OVC010 07/05 A3003 RMK A01

Hora: 15:01 (21:01 UTC)


TAF: manca

Observacions i pronòstics meteorològics de més de 4000 aeroports (METAR i TAF).

Les estacions disponibles són els punts grocs i vermells al mapa.

Posi el ratolí al punt desitjat per veure el nom de l'estació.

Feu clic per veure les observacions i els pronòstics meteorològics.

Per canviar el mapa: feu clic els botons verds amb una creu de color negre per apropar; al botó verd amb un guió per allunyar la imatge; o en les fletxes verdes per a mapes adjacents.


METAR-TAF: